Time;durP1;ratioP1;P1;durP2;ratioP2;P2;SDS_P1;SDS_P2;PMS_P1;PMS_P2;Temp;Humidity;BMP_temperature;BMP_pressure;BME280_temperature;BME280_humidity;BME280_pressure;Samples;Min_cycle;Max_cycle;Signal;HPM_P1;HPM_P2
2023/04/12 00:00:10;;;;;;;9.83;7.37;;;;;20.10;99619.00;;;;2071661;28;20281;-66
2023/04/12 00:01:11;;;;;;;11.82;8.43;;;;;20.10;99611.00;;;;2071129;28;20461;-66
2023/04/12 00:02:11;;;;;;;11.07;8.33;;;;;20.10;99622.00;;;;2062916;28;20211;-65
2023/04/12 00:03:11;;;;;;;11.70;7.60;;;;;20.10;99615.00;;;;2063215;28;20269;-66
2023/04/12 00:04:15;;;;;;;11.03;7.57;;;;;20.10;99618.00;;;;2071831;28;20602;-66
2023/04/12 00:05:15;;;;;;;10.85;7.78;;;;;20.10;99612.00;;;;2070846;28;20252;-65
2023/04/12 00:06:24;;;;;;;10.40;7.83;;;;;20.10;99616.00;;;;2071589;28;20737;-66
2023/04/12 00:07:24;;;;;;;10.07;7.15;;;;;20.10;99610.00;;;;2070885;28;20337;-66
2023/04/12 00:08:32;;;;;;;9.43;7.17;;;;;20.10;99604.00;;;;2071565;28;20206;-65
2023/04/12 00:09:35;;;;;;;11.00;7.57;;;;;20.10;99619.00;;;;2069110;28;20222;-65
2023/04/12 00:10:35;;;;;;;10.13;7.25;;;;;20.10;99617.00;;;;2071801;28;20222;-65
2023/04/12 00:11:35;;;;;;;7.80;6.33;;;;;20.10;99608.00;;;;2070871;28;20229;-66
2023/04/12 00:12:36;;;;;;;10.20;7.40;;;;;20.00;99609.00;;;;2071674;28;20210;-66
2023/04/12 00:13:36;;;;;;;9.10;6.80;;;;;20.10;99599.00;;;;2079487;28;20570;-67
2023/04/12 00:14:36;;;;;;;10.10;6.93;;;;;20.00;99598.00;;;;2080127;28;21014;-66
2023/04/12 00:15:37;;;;;;;9.17;6.77;;;;;20.00;99597.00;;;;2080074;28;20629;-65
2023/04/12 00:16:37;;;;;;;8.40;6.03;;;;;20.10;99603.00;;;;2082751;28;20696;-66
2023/04/12 00:17:38;;;;;;;9.10;6.73;;;;;20.00;99602.00;;;;2072219;28;20751;-65
2023/04/12 00:18:38;;;;;;;8.20;5.80;;;;;20.00;99594.00;;;;2070440;28;20716;-65
2023/04/12 00:19:41;;;;;;;9.67;5.90;;;;;20.00;99592.00;;;;2079831;28;20218;-66
2023/04/12 00:20:42;;;;;;;8.73;5.65;;;;;20.00;99588.00;;;;2079705;28;20301;-67
2023/04/12 00:21:42;;;;;;;8.00;5.97;;;;;20.00;99589.00;;;;2069898;28;20218;-66
2023/04/12 00:22:43;;;;;;;9.33;6.43;;;;;20.10;99592.00;;;;2070682;28;20222;-66
2023/04/12 00:23:48;;;;;;;10.30;5.83;;;;;20.00;99593.00;;;;2079013;28;20285;-66
2023/04/12 00:24:48;;;;;;;8.82;6.22;;;;;20.00;99597.00;;;;2079934;28;20544;-65
2023/04/12 00:25:49;;;;;;;8.17;5.60;;;;;20.00;99593.00;;;;2079044;28;20218;-66
2023/04/12 00:26:49;;;;;;;8.57;5.77;;;;;20.00;99590.00;;;;2079886;28;20209;-65
2023/04/12 00:27:50;;;;;;;7.57;5.10;;;;;20.00;99595.00;;;;2078976;28;21188;-66
2023/04/12 00:28:50;;;;;;;7.00;4.97;;;;;20.00;99589.00;;;;2079392;28;20696;-65
2023/04/12 00:29:50;;;;;;;6.67;4.70;;;;;20.00;99583.00;;;;2071038;28;20222;-65
2023/04/12 00:30:51;;;;;;;8.77;5.00;;;;;20.00;99595.00;;;;2071872;28;20241;-65
2023/04/12 00:31:51;;;;;;;7.40;5.10;;;;;20.00;99605.00;;;;2079541;28;20206;-65
2023/04/12 00:32:51;;;;;;;5.80;4.60;;;;;20.00;99581.00;;;;2081283;28;20308;-65
2023/04/12 00:33:52;;;;;;;6.63;4.80;;;;;20.00;99593.00;;;;2080569;28;20201;-65
2023/04/12 00:34:52;;;;;;;7.87;5.20;;;;;20.00;99588.00;;;;2078795;28;20206;-65
2023/04/12 00:35:52;;;;;;;7.40;4.80;;;;;20.00;99573.00;;;;2079677;28;20256;-66
2023/04/12 00:36:53;;;;;;;8.03;5.40;;;;;19.90;99572.00;;;;2079791;28;20244;-65
2023/04/12 00:37:53;;;;;;;7.63;5.30;;;;;20.00;99578.00;;;;2078976;28;20205;-65
2023/04/12 00:38:54;;;;;;;7.67;5.13;;;;;19.90;99554.00;;;;2079347;28;20681;-65
2023/04/12 00:39:54;;;;;;;6.87;4.57;;;;;19.90;99561.00;;;;2078633;28;20218;-66
2023/04/12 00:40:55;;;;;;;6.40;4.10;;;;;20.00;99567.00;;;;2079850;28;20217;-65
2023/04/12 00:41:55;;;;;;;7.23;4.67;;;;;20.00;99556.00;;;;2078798;28;20237;-65
2023/04/12 00:42:56;;;;;;;5.33;4.27;;;;;20.00;99548.00;;;;2079504;28;20679;-65
2023/04/12 00:43:56;;;;;;;5.03;4.10;;;;;20.00;99554.00;;;;2079466;28;20455;-65
2023/04/12 00:44:57;;;;;;;7.37;4.47;;;;;20.00;99549.00;;;;2076176;28;20220;-66
2023/04/12 00:45:57;;;;;;;7.73;4.40;;;;;20.00;99534.00;;;;2071440;28;20226;-66
2023/04/12 00:46:58;;;;;;;6.23;4.10;;;;;20.00;99535.00;;;;2065770;28;20574;-64
2023/04/12 00:47:59;;;;;;;6.35;3.60;;;;;19.90;99547.00;;;;2062553;28;20230;-65
2023/04/12 00:48:59;;;;;;;5.90;3.90;;;;;19.90;99545.00;;;;2067632;28;20220;-65
2023/04/12 00:50:00;;;;;;;4.77;3.40;;;;;19.90;99539.00;;;;2076256;28;20217;-65
2023/04/12 00:51:00;;;;;;;5.97;3.43;;;;;19.90;99537.00;;;;2079133;28;20209;-65
2023/04/12 00:52:04;;;;;;;5.47;3.87;;;;;19.90;99540.00;;;;2069415;28;20217;-65
2023/04/12 00:53:04;;;;;;;5.88;3.40;;;;;19.90;99535.00;;;;2062797;28;20294;-65
2023/04/12 00:54:05;;;;;;;5.77;3.67;;;;;19.90;99539.00;;;;2058703;28;20207;-65
2023/04/12 00:55:08;;;;;;;5.23;3.73;;;;;19.90;99532.00;;;;2062760;28;20265;-66
2023/04/12 00:56:10;;;;;;;5.78;3.95;;;;;19.90;99530.00;;;;2066722;28;20293;-66
2023/04/12 00:57:11;;;;;;;5.60;3.60;;;;;19.90;99532.00;;;;2064023;28;20740;-66
2023/04/12 00:58:13;;;;;;;4.07;3.13;;;;;19.90;99529.00;;;;2061731;28;20267;-65
2023/04/12 00:59:13;;;;;;;7.78;3.65;;;;;19.90;99531.00;;;;2066516;28;20700;-66
2023/04/12 01:00:15;;;;;;;4.77;3.10;;;;;19.90;99526.00;;;;2054488;28;20218;-66
2023/04/12 01:01:18;;;;;;;4.25;3.22;;;;;19.90;99531.00;;;;2061601;28;20225;-66
2023/04/12 01:02:18;;;;;;;6.88;3.95;;;;;19.90;99518.00;;;;2071162;28;20217;-66
2023/04/12 01:03:21;;;;;;;4.17;3.30;;;;;19.90;99518.00;;;;2071369;28;20252;-65
2023/04/12 01:04:25;;;;;;;4.60;2.97;;;;;19.90;99510.00;;;;2061408;28;20721;-65
2023/04/12 01:05:25;;;;;;;4.97;3.00;;;;;19.90;99510.00;;;;2055330;28;20235;-65
2023/04/12 01:06:37;;;;;;;3.50;2.87;;;;;19.90;99502.00;;;;2062607;28;20668;-65
2023/04/12 01:07:44;;;;;;;4.25;2.95;;;;;19.90;99495.00;;;;2078189;28;20452;-66
2023/04/12 01:09:29;;;;;;;4.95;2.75;;;;;19.90;99489.00;;;;2069852;28;20625;-66
2023/04/12 01:10:53;;;;;;;6.50;2.97;;;;;19.80;99496.00;;;;2071646;28;20653;-65
2023/04/12 01:12:02;;;;;;;4.72;2.97;;;;;19.90;99490.00;;;;2078113;28;20582;-65
2023/04/12 01:13:29;;;;;;;4.03;2.90;;;;;19.90;99482.00;;;;2062735;28;20235;-65
2023/04/12 01:15:06;;;;;;;4.45;2.97;;;;;19.80;99445.00;;;;2065314;28;20226;-66
2023/04/12 01:16:23;;;;;;;6.38;3.03;;;;;19.90;99473.00;;;;2053783;28;20211;-65
2023/04/12 01:17:27;;;;;;;4.60;2.33;;;;;19.90;99461.00;;;;2072202;28;20206;-65
2023/04/12 01:18:27;;;;;;;5.80;2.30;;;;;19.80;99471.00;;;;2070880;28;20249;-65
2023/04/12 01:19:32;;;;;;;3.30;2.43;;;;;19.80;99476.00;;;;2070583;28;20230;-66
2023/04/12 01:20:38;;;;;;;4.15;2.40;;;;;19.90;99480.00;;;;2078742;28;20213;-65
2023/04/12 01:21:50;;;;;;;4.10;2.55;;;;;19.90;99480.00;;;;2085132;28;20282;-65
2023/04/12 01:23:11;;;;;;;3.60;2.30;;;;;19.90;99466.00;;;;2078710;28;20206;-65
2023/04/12 01:24:30;;;;;;;5.47;2.58;;;;;19.80;99469.00;;;;2074125;28;20699;-66
2023/04/12 01:25:51;;;;;;;4.25;2.42;;;;;19.80;99475.00;;;;2078611;28;20619;-65
2023/04/12 01:26:51;;;;;;;3.47;2.28;;;;;19.80;99461.00;;;;2079351;28;20213;-65
2023/04/12 01:28:04;;;;;;;4.50;2.90;;;;;19.80;99454.00;;;;2079049;28;20201;-65
2023/04/12 01:29:09;;;;;;;4.63;2.33;;;;;19.80;99453.00;;;;2071958;28;20214;-66
2023/04/12 01:30:11;;;;;;;4.40;3.05;;;;;19.80;99438.00;;;;2077745;28;20943;-65
2023/04/12 01:31:12;;;;;;;4.20;2.30;;;;;19.80;99447.00;;;;2078476;28;20245;-66
2023/04/12 01:32:12;;;;;;;3.87;2.17;;;;;19.80;99446.00;;;;2070491;28;20221;-66
2023/04/12 01:33:13;;;;;;;3.70;2.40;;;;;19.80;99443.00;;;;2069492;28;20233;-66
2023/04/12 01:34:13;;;;;;;3.70;2.30;;;;;19.80;99446.00;;;;2069676;28;20221;-66
2023/04/12 01:35:13;;;;;;;4.93;2.63;;;;;19.80;99450.00;;;;2069375;28;20261;-65
2023/04/12 01:36:16;;;;;;;4.07;2.70;;;;;19.80;99438.00;;;;2054298;28;20208;-66
2023/04/12 01:37:18;;;;;;;4.18;2.65;;;;;19.80;99446.00;;;;2071094;28;20329;-66
2023/04/12 01:38:19;;;;;;;4.32;2.50;;;;;19.80;99437.00;;;;2066489;28;20210;-66
2023/04/12 01:39:19;;;;;;;3.63;2.20;;;;;19.80;99430.00;;;;2062081;28;20245;-66
2023/04/12 01:40:20;;;;;;;4.97;2.43;;;;;19.80;99437.00;;;;2084095;28;20217;-65
2023/04/12 01:41:20;;;;;;;3.13;1.70;;;;;19.80;99437.00;;;;2079166;28;20575;-66
2023/04/12 01:42:20;;;;;;;3.70;2.40;;;;;19.80;99423.00;;;;2074273;28;20253;-65
2023/04/12 01:43:21;;;;;;;4.17;2.43;;;;;19.80;99429.00;;;;2059744;28;20211;-65
2023/04/12 01:44:21;;;;;;;4.10;2.67;;;;;19.80;99430.00;;;;2070893;28;20230;-65
2023/04/12 01:45:21;;;;;;;4.20;2.33;;;;;19.80;99415.00;;;;2079408;28;20236;-65
2023/04/12 01:46:22;;;;;;;3.90;2.10;;;;;19.80;99418.00;;;;2079004;28;20700;-65
2023/04/12 01:47:23;;;;;;;3.70;1.77;;;;;19.80;99424.00;;;;2079115;28;20696;-65
2023/04/12 01:48:23;;;;;;;7.33;2.43;;;;;19.80;99407.00;;;;2078626;28;20825;-66
2023/04/12 01:49:23;;;;;;;5.00;2.03;;;;;19.80;99431.00;;;;2077476;28;20303;-65
2023/04/12 01:50:33;;;;;;;3.03;2.33;;;;;19.80;99410.00;;;;2070491;28;20645;-65
2023/04/12 01:51:46;;;;;;;3.45;1.90;;;;;19.80;99410.00;;;;2070255;28;20623;-66
2023/04/12 01:53:10;;;;;;;3.55;2.10;;;;;19.80;99407.00;;;;2078559;28;20230;-66
2023/04/12 01:54:12;;;;;;;4.07;2.15;;;;;19.80;99411.00;;;;2072242;28;20221;-66
2023/04/12 01:55:13;;;;;;;3.20;1.90;;;;;19.80;99396.00;;;;2070623;28;20241;-66
2023/04/12 01:56:14;;;;;;;4.97;2.27;;;;;19.70;99399.00;;;;2077792;28;20205;-66
2023/04/12 01:57:14;;;;;;;3.40;2.10;;;;;19.70;99391.00;;;;2078604;28;20452;-65
2023/04/12 01:58:18;;;;;;;2.93;1.77;;;;;19.70;99392.00;;;;2077794;28;20201;-66
2023/04/12 01:59:18;;;;;;;3.20;2.00;;;;;19.70;99391.00;;;;2078382;28;20224;-65
2023/04/12 02:00:19;;;;;;;4.10;1.87;;;;;19.80;99380.00;;;;2070584;28;20635;-65
2023/04/12 02:01:19;;;;;;;3.83;1.53;;;;;19.80;99383.00;;;;2077603;28;20214;-65
2023/04/12 02:02:19;;;;;;;2.57;1.67;;;;;19.80;99383.00;;;;2070203;28;20210;-65
2023/04/12 02:03:20;;;;;;;4.30;1.90;;;;;19.70;99381.00;;;;2070280;28;20214;-65
2023/04/12 02:04:20;;;;;;;2.37;1.67;;;;;19.70;99378.00;;;;2075181;28;20214;-65
2023/04/12 02:05:21;;;;;;;3.20;1.67;;;;;19.70;99375.00;;;;2079173;28;20210;-65
2023/04/12 02:06:21;;;;;;;4.93;1.87;;;;;19.70;99374.00;;;;2078442;28;20705;-65
2023/04/12 02:07:22;;;;;;;4.63;1.63;;;;;19.70;99377.00;;;;2077951;28;20236;-66
2023/04/12 02:08:22;;;;;;;3.00;1.80;;;;;19.70;99374.00;;;;2078694;28;20210;-66
2023/04/12 02:09:22;;;;;;;3.20;1.80;;;;;19.70;99372.00;;;;2077698;28;20720;-66
2023/04/12 02:10:29;;;;;;;4.47;2.10;;;;;19.70;99367.00;;;;2084962;28;20209;-66
2023/04/12 02:11:30;;;;;;;6.35;1.75;;;;;19.70;99367.00;;;;2078232;28;20246;-65
2023/04/12 02:12:30;;;;;;;3.70;2.00;;;;;19.70;99360.00;;;;2078928;28;20218;-65
2023/04/12 02:13:30;;;;;;;4.23;2.10;;;;;19.70;99356.00;;;;2078542;28;20712;-65
2023/04/12 02:14:31;;;;;;;4.30;2.00;;;;;19.70;99353.00;;;;2062712;28;20741;-66
2023/04/12 02:15:32;;;;;;;2.47;1.50;;;;;19.70;99352.00;;;;2066039;28;20222;-66
2023/04/12 02:16:33;;;;;;;3.08;1.77;;;;;19.70;99352.00;;;;2078235;28;20240;-65
2023/04/12 02:17:36;;;;;;;2.45;1.67;;;;;19.70;99347.00;;;;2079115;28;20281;-65
2023/04/12 02:18:36;;;;;;;2.70;1.92;;;;;19.70;99345.00;;;;2079501;28;20224;-66
2023/04/12 02:19:36;;;;;;;3.60;1.53;;;;;19.70;99343.00;;;;2082965;28;20583;-66
2023/04/12 02:20:37;;;;;;;2.10;1.60;;;;;19.70;99338.00;;;;2079138;28;20225;-65
2023/04/12 02:21:43;;;;;;;2.40;1.40;;;;;19.70;99347.00;;;;2077817;28;20241;-65
2023/04/12 02:22:44;;;;;;;4.95;1.65;;;;;19.70;99322.00;;;;2079097;28;20220;-65
2023/04/12 02:23:44;;;;;;;3.30;1.93;;;;;19.70;99332.00;;;;2078298;28;20590;-65
2023/04/12 02:24:44;;;;;;;2.93;1.80;;;;;19.70;99316.00;;;;2079378;28;20681;-66
2023/04/12 02:25:45;;;;;;;3.83;1.53;;;;;19.70;99323.00;;;;2079024;28;20937;-66
2023/04/12 02:26:48;;;;;;;3.00;1.23;;;;;19.70;99318.00;;;;2079222;28;21010;-65
2023/04/12 02:27:48;;;;;;;3.15;1.70;;;;;19.70;99323.00;;;;2078631;28;20712;-65
2023/04/12 02:28:49;;;;;;;2.40;1.60;;;;;19.70;99320.00;;;;2078830;28;20216;-64
2023/04/12 02:29:49;;;;;;;1.93;1.20;;;;;19.70;99323.00;;;;2079214;28;20272;-65
2023/04/12 02:30:52;;;;;;;3.93;1.60;;;;;19.70;99313.00;;;;2078400;28;20209;-65
2023/04/12 02:31:52;;;;;;;2.85;1.50;;;;;19.70;99297.00;;;;2078996;28;20202;-66
2023/04/12 02:32:55;;;;;;;4.17;1.67;;;;;19.70;99306.00;;;;2081330;28;20201;-66
2023/04/12 02:33:55;;;;;;;2.58;1.55;;;;;19.70;99304.00;;;;2079178;28;20233;-65
2023/04/12 02:34:57;;;;;;;3.23;1.73;;;;;19.70;99294.00;;;;2078190;28;20202;-66
2023/04/12 02:36:01;;;;;;;2.72;1.27;;;;;19.70;99285.00;;;;2079203;28;20808;-65
2023/04/12 02:37:02;;;;;;;3.40;1.30;;;;;19.70;99288.00;;;;2078992;28;20289;-66
2023/04/12 02:38:06;;;;;;;3.13;1.48;;;;;19.70;99291.00;;;;2083162;28;20213;-65
2023/04/12 02:39:07;;;;;;;3.20;1.42;;;;;19.60;99290.00;;;;2079061;28;20703;-65
2023/04/12 02:40:09;;;;;;;4.65;1.45;;;;;19.70;99305.00;;;;2078014;28;20223;-66
2023/04/12 02:41:16;;;;;;;3.35;1.27;;;;;19.60;99288.00;;;;2079053;28;20218;-66
2023/04/12 02:42:16;;;;;;;2.95;1.70;;;;;19.60;99293.00;;;;2077128;28;20717;-65
2023/04/12 02:43:16;;;;;;;4.13;1.63;;;;;19.60;99289.00;;;;2078589;28;20213;-66
2023/04/12 02:44:17;;;;;;;2.67;1.33;;;;;19.60;99287.00;;;;2077859;28;20220;-65
2023/04/12 02:45:17;;;;;;;3.63;1.73;;;;;19.60;99284.00;;;;2079242;28;20237;-65
2023/04/12 02:46:22;;;;;;;4.07;1.50;;;;;19.70;99274.00;;;;2080675;28;20229;-65
2023/04/12 02:47:27;;;;;;;3.55;1.20;;;;;19.60;99263.00;;;;2079175;28;20214;-65
2023/04/12 02:48:27;;;;;;;3.45;1.00;;;;;19.60;99264.00;;;;2079980;28;20217;-65
2023/04/12 02:49:27;;;;;;;1.63;0.90;;;;;19.60;99260.00;;;;2079783;28;20801;-65
2023/04/12 02:50:28;;;;;;;2.70;1.20;;;;;19.60;99264.00;;;;2080690;28;20226;-66
2023/04/12 02:51:28;;;;;;;3.83;1.50;;;;;19.60;99259.00;;;;2079746;28;20268;-65
2023/04/12 02:52:29;;;;;;;4.53;1.63;;;;;19.60;99258.00;;;;2080371;28;20217;-65
2023/04/12 02:53:32;;;;;;;3.10;0.80;;;;;19.60;99254.00;;;;2080701;28;20213;-65
2023/04/12 02:54:32;;;;;;;3.72;1.45;;;;;19.60;99255.00;;;;2080320;28;20214;-65
2023/04/12 02:55:32;;;;;;;4.73;1.50;;;;;19.60;99250.00;;;;2080612;28;20393;-65
2023/04/12 02:56:35;;;;;;;1.90;1.20;;;;;19.60;99246.00;;;;2079770;28;20228;-65
2023/04/12 02:57:36;;;;;;;3.40;1.27;;;;;19.60;99236.00;;;;2080718;28;20266;-66
2023/04/12 02:58:36;;;;;;;1.60;1.13;;;;;19.60;99233.00;;;;2082354;28;20728;-66
2023/04/12 02:59:37;;;;;;;2.90;1.33;;;;;19.60;99233.00;;;;2081627;28;20831;-65
2023/04/12 03:00:37;;;;;;;3.53;1.40;;;;;19.60;99230.00;;;;2079796;28;20681;-65
2023/04/12 03:01:39;;;;;;;3.37;1.17;;;;;19.60;99215.00;;;;2078886;28;20887;-67
2023/04/12 03:02:39;;;;;;;2.85;1.40;;;;;19.60;99224.00;;;;2079805;28;20225;-66
2023/04/12 03:03:40;;;;;;;2.83;1.23;;;;;19.60;99229.00;;;;2079842;28;20220;-65
2023/04/12 03:04:40;;;;;;;2.90;1.00;;;;;19.60;99222.00;;;;2079206;28;20232;-65
2023/04/12 03:05:41;;;;;;;3.40;1.10;;;;;19.60;99218.00;;;;2080565;28;20209;-66
2023/04/12 03:06:51;;;;;;;1.67;1.17;;;;;19.60;99223.00;;;;2079498;28;22136;-65
2023/04/12 03:07:51;;;;;;;2.63;1.42;;;;;19.60;99213.00;;;;2080297;28;20204;-66
2023/04/12 03:08:51;;;;;;;2.17;1.40;;;;;19.60;99213.00;;;;2080412;28;20198;-65
2023/04/12 03:09:52;;;;;;;2.80;1.30;;;;;19.60;99204.00;;;;2079552;28;20216;-65
2023/04/12 03:10:52;;;;;;;3.17;1.13;;;;;19.60;99201.00;;;;2079709;28;20288;-65
2023/04/12 03:11:52;;;;;;;2.17;1.37;;;;;19.60;99199.00;;;;2078713;28;20694;-65
2023/04/12 03:12:53;;;;;;;3.73;1.40;;;;;19.60;99194.00;;;;2080386;28;20567;-65
2023/04/12 03:13:54;;;;;;;2.60;1.40;;;;;19.60;99188.00;;;;2079678;28;20685;-65
2023/04/12 03:14:54;;;;;;;2.67;1.20;;;;;19.60;99187.00;;;;2080607;28;20800;-65
2023/04/12 03:15:56;;;;;;;2.40;1.27;;;;;19.60;99183.00;;;;2080339;28;20232;-65
2023/04/12 03:16:57;;;;;;;2.17;1.13;;;;;19.60;99179.00;;;;2080065;28;20222;-65
2023/04/12 03:17:57;;;;;;;3.60;1.23;;;;;19.60;99173.00;;;;2080527;28;20233;-66
2023/04/12 03:18:58;;;;;;;2.53;1.47;;;;;19.60;99175.00;;;;2079486;28;20245;-65
2023/04/12 03:20:08;;;;;;;2.40;1.20;;;;;19.60;99178.00;;;;2080388;28;20227;-65
2023/04/12 03:21:08;;;;;;;2.13;1.30;;;;;19.60;99171.00;;;;2079269;28;20991;-67
2023/04/12 03:22:09;;;;;;;1.53;1.00;;;;;19.60;99166.00;;;;2080059;28;20213;-65
2023/04/12 03:23:10;;;;;;;2.93;1.30;;;;;19.60;99166.00;;;;2070755;28;20691;-66
2023/04/12 03:24:10;;;;;;;3.87;1.80;;;;;19.60;99168.00;;;;2071443;28;20455;-64
2023/04/12 03:25:11;;;;;;;2.50;1.20;;;;;19.60;99152.00;;;;2071504;28;20253;-66
2023/04/12 03:26:12;;;;;;;1.70;1.08;;;;;19.60;99159.00;;;;2071265;28;20218;-66
2023/04/12 03:27:12;;;;;;;1.80;1.10;;;;;19.60;99147.00;;;;2078448;28;20213;-66
2023/04/12 03:28:12;;;;;;;3.20;1.10;;;;;19.60;99143.00;;;;2079585;28;20236;-66
2023/04/12 03:29:13;;;;;;;2.43;1.10;;;;;19.60;99148.00;;;;2080175;28;20210;-65
2023/04/12 03:30:13;;;;;;;3.20;1.30;;;;;19.60;99142.00;;;;2079615;28;20299;-65
2023/04/12 03:31:14;;;;;;;2.30;1.10;;;;;19.60;99137.00;;;;2079658;28;20259;-65
2023/04/12 03:32:14;;;;;;;2.10;1.00;;;;;19.60;99133.00;;;;2079220;28;20292;-65
2023/04/12 03:33:15;;;;;;;3.63;1.07;;;;;19.50;99141.00;;;;2079793;28;20213;-65
2023/04/12 03:34:15;;;;;;;2.23;1.10;;;;;19.50;99134.00;;;;2080300;28;20253;-66
2023/04/12 03:35:15;;;;;;;2.13;0.90;;;;;19.60;99138.00;;;;2079489;28;20411;-65
2023/04/12 03:36:16;;;;;;;2.00;1.43;;;;;19.50;99132.00;;;;2080352;28;20267;-65
2023/04/12 03:37:17;;;;;;;3.00;1.30;;;;;19.50;99129.00;;;;2079404;28;20236;-65
2023/04/12 03:38:17;;;;;;;2.40;1.20;;;;;19.60;99131.00;;;;2080114;28;20473;-65
2023/04/12 03:39:17;;;;;;;2.00;1.20;;;;;19.60;99117.00;;;;2079357;28;20241;-65
2023/04/12 03:40:18;;;;;;;1.63;1.07;;;;;19.60;99121.00;;;;2079323;28;20383;-65
2023/04/12 03:41:23;;;;;;;2.30;1.00;;;;;19.50;99119.00;;;;2080211;28;20382;-66
2023/04/12 03:42:23;;;;;;;2.78;1.10;;;;;19.50;99124.00;;;;2074842;28;20225;-65
2023/04/12 03:43:23;;;;;;;3.17;1.30;;;;;19.50;99127.00;;;;2077121;28;20277;-65
2023/04/12 03:44:25;;;;;;;2.47;1.00;;;;;19.50;99120.00;;;;2079347;28;20221;-65
2023/04/12 03:45:25;;;;;;;3.13;1.40;;;;;19.50;99115.00;;;;2080280;28;20247;-66
2023/04/12 03:46:25;;;;;;;1.90;0.90;;;;;19.50;99113.00;;;;2079298;28;20759;-65
2023/04/12 03:47:26;;;;;;;1.93;1.03;;;;;19.50;99116.00;;;;2081391;28;20237;-65
2023/04/12 03:48:26;;;;;;;1.97;1.00;;;;;19.50;99115.00;;;;2080225;28;20263;-65
2023/04/12 03:49:26;;;;;;;1.90;1.10;;;;;19.50;99115.00;;;;2078675;28;20704;-65
2023/04/12 03:50:30;;;;;;;2.00;1.00;;;;;19.50;99110.00;;;;2079613;28;20697;-65
2023/04/12 03:51:31;;;;;;;1.88;0.90;;;;;19.50;99099.00;;;;2079238;28;20263;-65
2023/04/12 03:52:32;;;;;;;2.00;1.13;;;;;19.50;99102.00;;;;2080135;28;20221;-62
2023/04/12 03:53:33;;;;;;;1.65;0.88;;;;;19.50;99100.00;;;;2079426;28;20666;-65
2023/04/12 03:54:33;;;;;;;2.10;1.00;;;;;19.50;99102.00;;;;2080281;28;20279;-65
2023/04/12 03:55:33;;;;;;;2.27;1.10;;;;;19.50;99093.00;;;;2080372;28;21208;-66
2023/04/12 03:56:34;;;;;;;2.53;1.00;;;;;19.50;99092.00;;;;2083076;28;20258;-66
2023/04/12 03:57:34;;;;;;;2.27;0.90;;;;;19.50;99093.00;;;;2079551;28;20244;-65
2023/04/12 03:58:35;;;;;;;1.70;0.90;;;;;19.50;99093.00;;;;2079637;28;20244;-65
2023/04/12 03:59:35;;;;;;;1.67;0.90;;;;;19.50;99075.00;;;;2079991;28;20224;-65
2023/04/12 04:00:35;;;;;;;2.87;1.17;;;;;19.50;99082.00;;;;2080127;28;20221;-65
2023/04/12 04:01:36;;;;;;;2.90;1.20;;;;;19.50;99080.00;;;;2081897;28;20224;-65
2023/04/12 04:02:37;;;;;;;3.23;1.00;;;;;19.50;99074.00;;;;2079240;28;20217;-65
2023/04/12 04:03:37;;;;;;;2.67;0.90;;;;;19.50;99067.00;;;;2080269;28;20322;-65
2023/04/12 04:04:37;;;;;;;2.60;1.17;;;;;19.50;99059.00;;;;2078860;28;20460;-65
2023/04/12 04:05:38;;;;;;;3.03;1.20;;;;;19.50;99074.00;;;;2079451;28;20214;-65
2023/04/12 04:06:38;;;;;;;1.67;1.20;;;;;19.50;99070.00;;;;2077967;28;20467;-67
2023/04/12 04:07:38;;;;;;;2.47;1.00;;;;;19.50;99072.00;;;;2079412;28;20251;-65
2023/04/12 04:08:41;;;;;;;1.80;0.80;;;;;19.50;99068.00;;;;2079779;28;20751;-65
2023/04/12 04:09:41;;;;;;;1.80;1.02;;;;;19.50;99057.00;;;;2081862;28;20235;-66
2023/04/12 04:10:42;;;;;;;2.30;0.90;;;;;19.50;99052.00;;;;2079700;28;20216;-66
2023/04/12 04:11:42;;;;;;;2.20;0.90;;;;;19.50;99050.00;;;;2078414;28;20230;-66
2023/04/12 04:12:42;;;;;;;2.03;0.93;;;;;19.50;99060.00;;;;2079390;28;20217;-66
2023/04/12 04:13:43;;;;;;;2.57;1.30;;;;;19.50;99057.00;;;;2078837;28;20728;-66
2023/04/12 04:14:43;;;;;;;1.57;0.90;;;;;19.50;99044.00;;;;2080217;28;20224;-66
2023/04/12 04:15:43;;;;;;;1.43;0.83;;;;;19.50;99050.00;;;;2080483;28;20561;-65
2023/04/12 04:16:44;;;;;;;2.00;1.00;;;;;19.50;99038.00;;;;2079394;28;20256;-65
2023/04/12 04:17:46;;;;;;;1.40;0.80;;;;;19.50;99054.00;;;;2080426;28;20837;-65
2023/04/12 04:18:46;;;;;;;3.22;1.08;;;;;19.50;99036.00;;;;2080361;28;20226;-65
2023/04/12 04:19:46;;;;;;;1.90;0.83;;;;;19.50;99034.00;;;;2079888;28;20220;-65
2023/04/12 04:20:47;;;;;;;1.43;0.80;;;;;19.50;99024.00;;;;2079438;28;20206;-65
2023/04/12 04:21:48;;;;;;;2.77;1.00;;;;;19.50;99028.00;;;;2079727;28;20248;-65
2023/04/12 04:22:52;;;;;;;2.50;1.25;;;;;19.40;99029.00;;;;2080491;28;20216;-66
2023/04/12 04:23:52;;;;;;;1.60;1.00;;;;;19.50;99029.00;;;;2079939;28;20209;-65
2023/04/12 04:24:54;;;;;;;2.33;1.00;;;;;19.50;99014.00;;;;2079958;28;20206;-65
2023/04/12 04:25:55;;;;;;;2.05;1.02;;;;;19.50;99016.00;;;;2078550;28;20546;-65
2023/04/12 04:26:55;;;;;;;1.83;1.00;;;;;19.40;99021.00;;;;2079469;28;20218;-65
2023/04/12 04:27:57;;;;;;;1.30;0.70;;;;;19.40;99019.00;;;;2079352;28;20209;-66
2023/04/12 04:29:00;;;;;;;2.33;0.85;;;;;19.50;98996.00;;;;2079762;28;20213;-65
2023/04/12 04:30:01;;;;;;;1.88;0.95;;;;;19.50;99009.00;;;;2079031;28;20756;-66
2023/04/12 04:31:05;;;;;;;1.40;1.00;;;;;19.50;99000.00;;;;2079879;28;20220;-65
2023/04/12 04:32:06;;;;;;;1.65;0.80;;;;;19.50;99008.00;;;;2079729;28;20229;-65
2023/04/12 04:33:06;;;;;;;2.20;1.10;;;;;19.50;99012.00;;;;2079337;28;20226;-66
2023/04/12 04:34:07;;;;;;;1.57;0.70;;;;;19.50;99015.00;;;;2080057;28;20232;-65
2023/04/12 04:35:07;;;;;;;1.47;0.90;;;;;19.40;99012.00;;;;2079587;28;20213;-65
2023/04/12 04:36:08;;;;;;;2.53;0.80;;;;;19.40;99015.00;;;;2079355;28;20703;-65
2023/04/12 04:37:09;;;;;;;2.13;0.90;;;;;19.40;99006.00;;;;2077979;28;20217;-67
2023/04/12 04:38:09;;;;;;;1.30;0.87;;;;;19.50;99005.00;;;;2079921;28;20968;-66
2023/04/12 04:39:10;;;;;;;2.80;0.90;;;;;19.40;99004.00;;;;2079984;28;20240;-65
2023/04/12 04:40:11;;;;;;;1.90;0.70;;;;;19.40;99002.00;;;;2079126;28;20213;-65
2023/04/12 04:41:11;;;;;;;1.13;0.70;;;;;19.50;98994.00;;;;2079319;28;20209;-65
2023/04/12 04:42:11;;;;;;;2.43;1.13;;;;;19.40;99007.00;;;;2075801;28;20464;-65
2023/04/12 04:43:12;;;;;;;1.63;0.73;;;;;19.40;99000.00;;;;2076288;28;20228;-65
2023/04/12 04:44:13;;;;;;;1.48;0.85;;;;;19.40;98999.00;;;;2078909;28;20221;-65
2023/04/12 04:45:13;;;;;;;1.87;1.00;;;;;19.40;98991.00;;;;2080056;28;20259;-65
2023/04/12 04:46:13;;;;;;;4.90;1.10;;;;;19.50;98984.00;;;;2079774;28;20237;-66
2023/04/12 04:47:14;;;;;;;2.13;1.00;;;;;19.50;98992.00;;;;2079020;28;20213;-65
2023/04/12 04:48:15;;;;;;;2.90;0.90;;;;;19.40;98989.00;;;;2079805;28;20235;-65
2023/04/12 04:49:15;;;;;;;2.03;1.13;;;;;19.40;98992.00;;;;2078898;28;20237;-65
2023/04/12 04:50:15;;;;;;;2.47;0.97;;;;;19.40;98990.00;;;;2079846;28;20876;-65
2023/04/12 04:51:16;;;;;;;1.90;0.80;;;;;19.40;98989.00;;;;2079087;28;20247;-65
2023/04/12 04:52:17;;;;;;;1.33;0.85;;;;;19.40;98984.00;;;;2078975;28;20220;-65
2023/04/12 04:53:21;;;;;;;0.90;0.70;;;;;19.40;98976.00;;;;2078739;28;20240;-65
2023/04/12 04:54:21;;;;;;;2.65;1.08;;;;;19.40;98979.00;;;;2081710;28;20213;-65
2023/04/12 04:55:23;;;;;;;2.00;0.97;;;;;19.40;98975.00;;;;2079160;28;20699;-66
2023/04/12 04:56:23;;;;;;;1.63;0.77;;;;;19.40;98978.00;;;;2078740;28;20202;-65
2023/04/12 04:57:25;;;;;;;1.80;0.90;;;;;19.40;98978.00;;;;2079833;28;20205;-65
2023/04/12 04:58:26;;;;;;;2.28;1.00;;;;;19.40;98970.00;;;;2078958;28;20947;-66
2023/04/12 04:59:26;;;;;;;1.63;1.00;;;;;19.40;98963.00;;;;2079512;28;20225;-65
2023/04/12 05:00:26;;;;;;;2.10;0.90;;;;;19.40;98965.00;;;;2079041;28;20260;-65
2023/04/12 05:01:28;;;;;;;1.00;0.70;;;;;19.40;98969.00;;;;2081118;28;20236;-65
2023/04/12 05:02:28;;;;;;;1.67;0.90;;;;;19.40;98963.00;;;;2079621;28;20771;-65
2023/04/12 05:03:29;;;;;;;1.03;0.80;;;;;19.40;98951.00;;;;2079103;28;20217;-65
2023/04/12 05:04:30;;;;;;;1.17;0.83;;;;;19.40;98961.00;;;;2078190;28;20703;-66
2023/04/12 05:05:30;;;;;;;2.10;0.90;;;;;19.40;98963.00;;;;2079789;28;20237;-66
2023/04/12 05:06:30;;;;;;;1.77;0.80;;;;;19.40;98954.00;;;;2078751;28;20514;-65
2023/04/12 05:07:31;;;;;;;2.43;1.07;;;;;19.50;98951.00;;;;2081114;28;20228;-65
2023/04/12 05:08:31;;;;;;;1.57;1.00;;;;;19.50;98954.00;;;;2078961;28;20217;-65
2023/04/12 05:09:31;;;;;;;1.00;0.70;;;;;19.50;98950.00;;;;2081444;28;20247;-65